createdAt,value
2018-04-27T00:01:54.519Z,2.70
2018-04-27T00:04:22.147Z,2.07
2018-04-27T00:06:49.788Z,2.20
2018-04-27T00:18:26.556Z,2.40
2018-04-27T00:20:54.074Z,2.13
2018-04-27T00:23:21.635Z,2.23
2018-04-27T00:34:56.428Z,1.50
2018-04-27T00:37:24.962Z,1.80
2018-04-27T00:39:52.534Z,2.20
2018-04-27T00:51:01.810Z,1.60
2018-04-27T00:53:29.387Z,1.90
2018-04-27T00:55:56.922Z,1.70
2018-04-27T00:58:24.539Z,2.27
2018-04-27T01:01:03.808Z,2.30
2018-04-27T01:06:15.166Z,1.90
2018-04-27T01:08:42.799Z,2.10
2018-04-27T01:11:10.357Z,2.33
2018-04-27T01:13:37.913Z,2.10
2018-04-27T01:16:05.656Z,2.40
2018-04-27T01:18:34.189Z,2.20
2018-04-27T01:21:04.195Z,2.20
2018-04-27T01:23:31.757Z,2.80
2018-04-27T01:25:59.254Z,2.77
2018-04-27T01:28:27.425Z,2.30
2018-04-27T01:30:55.001Z,2.70
2018-04-27T01:33:22.681Z,1.90
2018-04-27T01:35:55.180Z,1.90
2018-04-27T01:38:23.844Z,2.30
2018-04-27T01:40:54.428Z,1.80
2018-04-27T01:43:21.998Z,3.00
2018-04-27T01:45:49.532Z,2.47
2018-04-27T01:48:17.161Z,2.10
2018-04-27T01:50:44.762Z,2.40
2018-04-27T01:53:14.966Z,2.40
2018-04-27T01:55:46.354Z,2.13
2018-04-27T01:58:15.194Z,2.20
2018-04-27T02:00:42.743Z,2.30
2018-04-27T02:03:10.263Z,2.87
2018-04-27T02:05:38.053Z,2.33
2018-04-27T02:08:06.587Z,2.30
2018-04-27T02:10:39.027Z,1.63
2018-04-27T02:13:10.403Z,2.47
2018-04-27T02:18:30.592Z,2.07
2018-04-27T02:20:58.145Z,2.13
2018-04-27T02:23:25.741Z,2.03
2018-04-27T02:34:42.766Z,2.37
2018-04-27T02:37:10.351Z,1.97
2018-04-27T02:39:38.060Z,2.40
2018-04-27T02:51:12.436Z,2.10
2018-04-27T02:53:40.028Z,2.15
2018-04-27T02:56:07.557Z,2.45
2018-04-27T02:58:37.116Z,1.83
2018-04-27T03:09:41.961Z,2.22
2018-04-27T03:12:09.525Z,2.22
2018-04-27T03:14:37.133Z,2.12
2018-04-27T03:26:13.761Z,2.50
2018-04-27T03:28:41.418Z,2.83
2018-04-27T03:31:09.086Z,2.33
2018-04-27T03:42:45.583Z,2.83
2018-04-27T03:45:13.141Z,2.97
2018-04-27T03:47:40.711Z,2.30
2018-04-27T03:59:28.573Z,2.77
2018-04-27T04:02:07.905Z,2.28
2018-04-27T04:04:47.559Z,3.03
2018-04-27T04:07:28.844Z,2.70
2018-04-27T04:19:01.515Z,3.12
2018-04-27T04:21:29.093Z,3.55
2018-04-27T04:23:56.669Z,2.78
2018-04-27T04:35:33.495Z,2.92
2018-04-27T04:38:01.081Z,3.03
2018-04-27T04:40:28.699Z,2.35
2018-04-27T04:52:05.142Z,2.12
2018-04-27T04:54:32.709Z,2.10
2018-04-27T04:57:01.312Z,1.75
2018-04-27T05:08:37.847Z,1.50
2018-04-27T05:11:05.463Z,1.98
2018-04-27T05:13:33.069Z,2.10
2018-04-27T05:25:09.153Z,1.80
2018-04-27T05:27:36.865Z,1.95
2018-04-27T05:30:04.496Z,1.90
2018-04-27T05:41:56.406Z,1.30
2018-04-27T05:44:24.011Z,1.27
2018-04-27T05:46:51.605Z,1.40
2018-04-27T05:49:19.307Z,1.27
2018-04-27T06:00:56.390Z,1.20
2018-04-27T06:03:24.095Z,1.55
2018-04-27T06:05:51.695Z,1.60
2018-04-27T06:17:28.183Z,3.65
2018-04-27T06:19:55.724Z,1.55
2018-04-27T06:22:23.393Z,1.15
2018-04-27T06:33:59.827Z,1.60
2018-04-27T06:36:31.489Z,1.60
2018-04-27T06:38:59.110Z,1.62
2018-04-27T06:50:35.243Z,1.62
2018-04-27T06:53:02.823Z,1.60
2018-04-27T06:55:30.456Z,1.40
2018-04-27T07:00:58.965Z,1.92
2018-04-27T07:09:33.080Z,1.65
2018-04-27T07:12:00.786Z,1.35
2018-04-27T07:14:28.405Z,1.20
2018-04-27T07:26:05.547Z,1.30
2018-04-27T07:28:33.095Z,1.70
2018-04-27T07:31:00.667Z,1.17
2018-04-27T07:42:36.571Z,1.15
2018-04-27T07:45:04.254Z,1.40
2018-04-27T07:47:31.827Z,1.10
2018-04-27T07:59:07.721Z,1.50
2018-04-27T08:01:35.309Z,1.20
2018-04-27T08:04:02.940Z,1.30
2018-04-27T08:15:36.741Z,1.55
2018-04-27T08:18:04.350Z,1.50
2018-04-27T08:20:31.923Z,1.40
2018-04-27T08:23:00.367Z,1.23
2018-04-27T08:28:21.052Z,1.00
2018-04-27T08:33:39.147Z,1.10
2018-04-27T08:36:06.771Z,1.10
2018-04-27T08:38:34.373Z,1.23
2018-04-27T08:50:08.647Z,0.90
2018-04-27T08:52:36.259Z,0.73
2018-04-27T08:55:03.953Z,0.88
2018-04-27T08:57:31.604Z,0.65
2018-04-27T09:09:34.947Z,0.93
2018-04-27T09:12:02.619Z,1.27
2018-04-27T09:14:30.258Z,0.88
2018-04-27T09:17:03.939Z,1.25
2018-04-27T09:22:36.155Z,1.00
2018-04-27T09:25:03.880Z,1.12
2018-04-27T09:27:31.503Z,0.82
2018-04-27T09:29:59.107Z,0.80
2018-04-27T09:32:28.497Z,0.82
2018-04-27T09:41:24.323Z,0.98
2018-04-27T09:43:51.899Z,0.73
2018-04-27T09:46:19.521Z,1.00
2018-04-27T09:48:47.341Z,0.80
2018-04-27T09:57:27.794Z,1.10
2018-04-27T09:59:55.505Z,1.10
2018-04-27T10:04:55.705Z,1.48
2018-04-27T10:07:31.477Z,1.67
2018-04-27T10:10:02.758Z,1.73
2018-04-27T10:15:37.028Z,1.97
2018-04-27T10:18:04.579Z,2.23
2018-04-27T10:20:32.260Z,2.40
2018-04-27T10:22:59.832Z,2.37
2018-04-27T10:34:51.931Z,3.47
2018-04-27T10:37:19.623Z,3.25
2018-04-27T10:39:47.314Z,2.80
2018-04-27T10:42:24.129Z,3.20
2018-04-27T10:44:54.546Z,3.03
2018-04-27T10:47:24.650Z,3.00
2018-04-27T10:49:53.325Z,3.10
2018-04-27T10:52:20.924Z,3.45
2018-04-27T10:54:48.493Z,3.42
2018-04-27T10:57:16.079Z,2.90
2018-04-27T10:59:47.273Z,2.87
2018-04-27T11:05:00.402Z,2.85
2018-04-27T11:07:28.114Z,3.00
2018-04-27T11:09:55.697Z,3.10
2018-04-27T11:12:23.358Z,2.90
2018-04-27T11:14:50.919Z,2.63
2018-04-27T11:26:27.676Z,2.33
2018-04-27T11:28:55.226Z,2.10
2018-04-27T11:31:22.909Z,1.93
2018-04-27T11:43:08.925Z,1.70
2018-04-27T11:45:36.497Z,1.60
2018-04-27T11:48:04.062Z,1.40
2018-04-27T11:59:35.607Z,1.00
2018-04-27T12:02:03.187Z,1.00
2018-04-27T12:04:30.910Z,1.10
2018-04-27T12:16:07.052Z,0.80
2018-04-27T12:18:34.614Z,1.90
2018-04-27T12:21:03.059Z,0.60
2018-04-27T12:23:32.418Z,0.90
2018-04-27T12:35:02.173Z,0.97
2018-04-27T12:37:29.736Z,0.60
2018-04-27T12:39:58.247Z,0.73
2018-04-27T12:50:17.712Z,1.80
2018-04-27T12:52:45.431Z,1.50
2018-04-27T12:55:13.123Z,1.60
2018-04-27T12:57:40.855Z,3.30
2018-04-27T13:00:14.623Z,1.70
2018-04-27T13:02:46.425Z,2.40
2018-04-27T13:07:53.376Z,1.70
2018-04-27T13:10:20.931Z,1.50
2018-04-27T13:12:48.543Z,2.13
2018-04-27T13:15:16.223Z,2.03
2018-04-27T13:17:48.059Z,1.93
2018-04-27T13:20:16.527Z,2.00
2018-04-27T13:22:44.616Z,2.03
2018-04-27T13:25:12.231Z,2.37
2018-04-27T13:27:41.787Z,2.50
2018-04-27T13:30:09.402Z,2.13
2018-04-27T13:32:36.969Z,2.57
2018-04-27T13:35:04.659Z,2.13
2018-04-27T13:40:26.689Z,2.50
2018-04-27T13:42:54.279Z,2.40
2018-04-27T13:45:21.781Z,1.90
2018-04-27T13:47:49.371Z,1.60
2018-04-27T13:50:16.936Z,1.70
2018-04-27T14:03:49.509Z,1.67
2018-04-27T14:06:17.168Z,1.80
2018-04-27T14:16:58.991Z,1.93
2018-04-27T14:19:26.628Z,1.93
2018-04-27T14:21:54.283Z,1.83
2018-04-27T14:24:22.236Z,2.20
2018-04-27T14:32:25.032Z,2.10
2018-04-27T14:34:52.660Z,2.03
2018-04-27T14:37:20.351Z,2.00
2018-04-27T14:39:48.015Z,2.13
2018-04-27T14:42:16.279Z,1.97
2018-04-27T14:44:45.225Z,2.07
2018-04-27T14:49:50.816Z,2.20
2018-04-27T14:52:18.476Z,1.87
2018-04-27T14:54:46.075Z,1.90
2018-04-27T14:57:13.689Z,1.60
2018-04-27T14:59:43.591Z,1.60
2018-04-27T15:02:14.843Z,1.60
2018-04-27T15:04:46.612Z,1.73
2018-04-27T15:07:16.351Z,2.30
2018-04-27T15:09:43.928Z,1.63
2018-04-27T15:12:11.560Z,1.70
2018-04-27T15:14:39.128Z,1.80
2018-04-27T15:17:08.741Z,1.43
2018-04-27T15:19:43.731Z,2.57
2018-04-27T15:22:12.274Z,2.50
2018-04-27T15:24:39.848Z,1.40
2018-04-27T15:27:07.387Z,1.50
2018-04-27T15:29:34.943Z,1.30
2018-04-27T15:32:02.554Z,1.73
2018-04-27T15:34:31.129Z,1.53
2018-04-27T15:37:00.906Z,1.50
2018-04-27T15:39:28.787Z,1.60
2018-04-27T15:42:00.740Z,1.70
2018-04-27T15:44:28.350Z,1.70
2018-04-27T15:46:55.963Z,1.70
2018-04-27T15:49:23.615Z,1.73
2018-04-27T15:51:52.274Z,1.70
2018-04-27T15:54:20.285Z,1.60
2018-04-27T15:56:52.744Z,1.70
2018-04-27T15:59:22.032Z,1.73
2018-04-27T16:01:49.659Z,1.80
2018-04-27T16:04:17.221Z,1.80
2018-04-27T16:06:44.964Z,1.70
2018-04-27T16:09:14.731Z,1.60
2018-04-27T16:11:43.633Z,1.83
2018-04-27T16:14:12.165Z,1.77
2018-04-27T16:16:39.695Z,1.93
2018-04-27T16:19:07.327Z,1.73
2018-04-27T16:21:34.938Z,1.90
2018-04-27T16:24:02.593Z,1.80
2018-04-27T16:26:35.237Z,1.93
2018-04-27T16:29:03.779Z,1.57
2018-04-27T16:31:32.398Z,1.77
2018-04-27T16:34:00.803Z,1.53
2018-04-27T16:36:28.377Z,1.83
2018-04-27T16:38:55.918Z,1.67
2018-04-27T16:41:23.458Z,1.80
2018-04-27T16:43:51.291Z,1.80
2018-04-27T16:46:28.190Z,1.80
2018-04-27T16:49:04.338Z,1.70
2018-04-27T16:51:31.983Z,1.70
2018-04-27T16:53:59.611Z,1.90
2018-04-27T16:56:27.146Z,1.87
2018-04-27T16:58:54.755Z,1.77
2018-04-27T17:01:28.793Z,2.27
2018-04-27T17:09:10.725Z,1.90
2018-04-27T17:11:38.273Z,2.00
2018-04-27T17:14:05.851Z,1.90
2018-04-27T17:16:33.576Z,1.70
2018-04-27T17:19:02.970Z,2.10
2018-04-27T17:21:31.611Z,1.90
2018-04-27T17:24:00.306Z,1.97
2018-04-27T17:26:27.893Z,2.40
2018-04-27T17:28:55.385Z,2.20
2018-04-27T17:31:23.092Z,2.07
2018-04-27T17:42:36.515Z,1.80
2018-04-27T17:45:04.885Z,2.10
2018-04-27T17:47:32.552Z,2.43
2018-04-27T17:50:00.223Z,2.20
2018-04-27T18:00:52.269Z,2.17
2018-04-27T18:03:19.901Z,2.30
2018-04-27T18:05:47.461Z,2.40
2018-04-27T18:08:19.609Z,2.63
2018-04-27T18:10:50.859Z,2.93
2018-04-27T18:13:20.050Z,2.60
2018-04-27T18:19:23.707Z,4.73
2018-04-27T18:21:51.360Z,3.43
2018-04-27T18:24:21.340Z,3.73
2018-04-27T18:29:28.146Z,2.30
2018-04-27T18:32:06.601Z,2.73
2018-04-27T18:34:34.267Z,2.10
2018-04-27T18:37:01.827Z,2.57
2018-04-27T18:39:29.413Z,2.10
2018-04-27T18:41:58.091Z,2.53
2018-04-27T18:52:55.322Z,3.77
2018-04-27T18:55:22.963Z,2.80
2018-04-27T18:57:50.560Z,3.70
2018-04-27T19:03:16.330Z,4.27
2018-04-27T19:05:44.812Z,3.80
2018-04-27T19:08:12.420Z,4.50
2018-04-27T19:10:40.004Z,3.60
2018-04-27T19:13:07.671Z,2.80
2018-04-27T19:15:36.378Z,3.60
2018-04-27T19:20:59.611Z,2.10
2018-04-27T19:23:31.779Z,2.03
2018-04-27T19:25:59.376Z,1.90
2018-04-27T19:28:31.023Z,2.20
2018-04-27T19:30:59.424Z,1.90
2018-04-27T19:33:27.019Z,2.27
2018-04-27T19:35:57.102Z,2.00
2018-04-27T19:38:27.891Z,1.83
2018-04-27T19:40:56.443Z,1.97
2018-04-27T19:43:24.992Z,2.60
2018-04-27T19:45:52.745Z,2.67
2018-04-27T19:48:20.387Z,3.40
2018-04-27T19:50:48.181Z,3.83
2018-04-27T19:53:19.783Z,2.67
2018-04-27T19:55:50.709Z,2.87
2018-04-27T19:58:23.873Z,2.90
2018-04-27T20:00:51.492Z,2.53
2018-04-27T20:03:19.759Z,2.60
2018-04-27T20:05:48.081Z,2.60
2018-04-27T20:08:16.016Z,2.77
2018-04-27T20:10:46.672Z,2.80
2018-04-27T20:15:59.749Z,3.17
2018-04-27T20:18:28.250Z,3.40
2018-04-27T20:20:55.804Z,3.10
2018-04-27T20:23:23.400Z,3.10
2018-04-27T20:25:59.832Z,3.00
2018-04-27T20:28:31.677Z,3.40
2018-04-27T20:31:00.444Z,3.50
2018-04-27T20:33:32.744Z,3.47
2018-04-27T20:36:01.085Z,3.47
2018-04-27T20:38:30.554Z,3.50
2018-04-27T20:40:58.140Z,3.87
2018-04-27T20:43:27.377Z,3.87
2018-04-27T20:45:56.730Z,3.87
2018-04-27T20:48:26.952Z,3.97
2018-04-27T20:53:51.548Z,4.20
2018-04-27T20:56:20.550Z,4.27
2018-04-27T20:58:48.111Z,4.37
2018-04-27T21:01:15.779Z,4.47
2018-04-27T21:03:45.397Z,4.73
2018-04-27T21:06:14.896Z,4.60
2018-04-27T21:08:42.432Z,5.00
2018-04-27T21:11:10.023Z,4.60
2018-04-27T21:13:37.578Z,4.63
2018-04-27T21:16:06.135Z,5.10
2018-04-27T21:18:35.463Z,5.10
2018-04-27T21:21:07.809Z,5.13
2018-04-27T21:23:36.603Z,5.03
2018-04-27T21:26:04.180Z,5.10
2018-04-27T21:28:33.439Z,5.30
2018-04-27T21:31:00.988Z,4.73
2018-04-27T21:33:38.165Z,5.30
2018-04-27T21:36:07.034Z,5.43
2018-04-27T21:38:56.695Z,5.10
2018-04-27T21:47:24.351Z,5.80
2018-04-27T21:49:52.008Z,6.10
2018-04-27T21:55:08.103Z,5.93
2018-04-27T21:57:48.870Z,5.70
2018-04-27T22:00:16.592Z,5.93
2018-04-27T22:02:50.052Z,5.57
2018-04-27T22:08:33.332Z,5.80
2018-04-27T22:11:02.779Z,5.57
2018-04-27T22:13:35.466Z,6.20
2018-04-27T22:16:07.013Z,5.60
2018-04-27T22:18:34.602Z,5.60
2018-04-27T22:21:02.152Z,5.37
2018-04-27T22:23:30.358Z,4.93
2018-04-27T22:25:58.851Z,5.40
2018-04-27T22:28:35.354Z,5.20
2018-04-27T22:31:08.129Z,5.30
2018-04-27T22:39:17.527Z,4.80
2018-04-27T22:45:03.205Z,5.03
2018-04-27T22:50:34.667Z,5.20
2018-04-27T22:53:02.242Z,5.60
2018-04-27T22:55:30.487Z,5.30
2018-04-27T22:58:08.852Z,4.93
2018-04-27T23:09:14.329Z,6.33
2018-04-27T23:11:41.907Z,6.47
2018-04-27T23:14:16.271Z,5.80
2018-04-27T23:16:45.607Z,6.00
2018-04-27T23:28:21.623Z,6.27
2018-04-27T23:30:49.147Z,5.97
2018-04-27T23:33:16.819Z,5.90
2018-04-27T23:44:52.890Z,5.87
2018-04-27T23:47:20.470Z,6.17
2018-04-27T23:49:48.042Z,6.50
